North Chittenango, New York
Current Conditions -  °F | °C
As of 6:54 AM on Thursday 27 Nov 2014 (Local Time) from KSYR Reporting Station
Light Snow Light Snow  
Wind Chill: 28°   Ceiling: 4700
Heat Index: 28°   Visibility: 4mi
Dew Point: 26°   Wind: 3mph
Humidity: 92%   Direction: 310°NW
Pressure: 30.02"   Gusts: NA
Location:  43.0618°N, 75.8688°W
Report Text: KSYR 271154Z 31003KT 4SM -SN BR FEW008 FEW038 OVC047 M02/M03 A3002 RMK AO2 SLP167 4/003 P0000 60002 70029 T10221033 11017 21022 53008
Loading
Personal Weather Stations






























Interactive Weather Map New forecast layout! Learn more

10-Day Weather Forecast

Advertisements
Track Severe Weather on mobile